Time;durP1;ratioP1;P1;durP2;ratioP2;P2;SDS_P1;SDS_P2;PMS_P1;PMS_P2;Temp;Humidity;BMP_temperature;BMP_pressure;BME280_temperature;BME280_humidity;BME280_pressure;Samples;Min_cycle;Max_cycle;Signal;HPM_P1;HPM_P2
2022/02/13 00:00:06;;;;;;;;;61.00;46.50;;;;;3.39;57.41;101307.47;5118886;27;45515;-60
2022/02/13 00:02:32;;;;;;;;;69.75;56.50;;;;;3.36;57.50;101304.19;5118643;27;45235;-60
2022/02/13 00:04:57;;;;;;;;;66.75;49.25;;;;;3.34;57.38;101303.41;5100242;27;45286;-59
2022/02/13 00:07:23;;;;;;;;;55.00;44.25;;;;;3.32;57.77;101300.88;5118922;27;45236;-60
2022/02/13 00:09:48;;;;;;;;;57.00;43.25;;;;;3.29;57.49;101293.22;5118813;27;45286;-60
2022/02/13 00:12:14;;;;;;;;;58.25;44.00;;;;;3.23;57.63;101285.69;5118673;27;45846;-60
2022/02/13 00:14:39;;;;;;;;;60.25;45.25;;;;;3.22;57.72;101297.84;5118641;27;45407;-60
2022/02/13 00:17:05;;;;;;;;;62.75;48.00;;;;;3.21;58.19;101293.56;5116856;27;62840;-60
2022/02/13 00:19:30;;;;;;;;;63.25;50.50;;;;;3.20;57.98;101288.44;5117978;27;59742;-59
2022/02/13 00:21:55;;;;;;;;;70.75;51.00;;;;;3.16;58.03;101279.94;5117727;27;65459;-60
2022/02/13 00:24:21;;;;;;;;;68.25;53.50;;;;;3.13;58.19;101280.09;5118431;27;45526;-60
2022/02/13 00:26:46;;;;;;;;;71.00;52.00;;;;;3.12;58.46;101278.41;5082391;27;52129;-60
2022/02/13 00:29:12;;;;;;;;;65.75;48.25;;;;;3.10;58.36;101270.69;5098825;27;69898;-60
2022/02/13 00:31:37;;;;;;;;;62.00;45.75;;;;;3.10;58.33;101262.91;5117537;27;58335;-60
2022/02/13 00:34:03;;;;;;;;;60.50;45.25;;;;;3.08;58.59;101258.69;5118592;27;45341;-60
2022/02/13 00:36:29;;;;;;;;;57.50;46.25;;;;;3.06;58.47;101258.75;5118316;27;45403;-60
2022/02/13 00:38:55;;;;;;;;;57.75;44.00;;;;;3.05;58.58;101249.28;5116971;27;45436;-60
2022/02/13 00:41:20;;;;;;;;;63.00;45.50;;;;;3.04;58.39;101238.97;5117297;27;66672;-60
2022/02/13 00:43:45;;;;;;;;;62.75;47.00;;;;;3.01;58.58;101232.16;5117346;27;65004;-60
2022/02/13 00:46:11;;;;;;;;;61.50;48.25;;;;;2.99;58.46;101233.13;5118057;27;45385;-59
2022/02/13 00:48:36;;;;;;;;;56.25;45.25;;;;;2.95;58.77;101222.88;5118291;27;45361;-60
2022/02/13 00:51:02;;;;;;;;;62.00;48.00;;;;;2.93;58.65;101219.50;5117971;27;45210;-60
2022/02/13 00:53:27;;;;;;;;;62.75;45.50;;;;;2.92;58.67;101214.41;5117079;27;67601;-60
2022/02/13 00:55:53;;;;;;;;;57.75;44.00;;;;;2.89;58.49;101215.41;5118135;27;45327;-60
2022/02/13 00:58:18;;;;;;;;;49.50;42.25;;;;;2.85;58.99;101213.00;5117119;27;69024;-60
2022/02/13 01:00:44;;;;;;;;;58.25;45.00;;;;;2.80;58.82;101213.22;5117708;27;45870;-60
2022/02/13 01:03:09;;;;;;;;;58.75;44.25;;;;;2.78;59.01;101209.84;5117767;27;45300;-59
2022/02/13 01:05:34;;;;;;;;;54.00;40.00;;;;;2.73;59.13;101204.84;5116887;27;65691;-60
2022/02/13 01:08:00;;;;;;;;;56.50;42.50;;;;;2.71;59.27;101209.25;5098014;27;49548;-59
2022/02/13 01:10:25;;;;;;;;;54.25;44.25;;;;;2.72;59.22;101210.13;5117578;27;47644;-60
2022/02/13 01:12:50;;;;;;;;;58.25;42.75;;;;;2.71;59.04;101201.47;5117645;27;45329;-60
2022/02/13 01:15:16;;;;;;;;;52.75;44.00;;;;;2.70;59.10;101204.97;5117283;27;59710;-59
2022/02/13 01:17:41;;;;;;;;;55.25;45.00;;;;;2.68;59.17;101199.00;5117815;27;45586;-60
2022/02/13 01:20:07;;;;;;;;;59.25;43.00;;;;;2.63;59.09;101177.66;5099170;27;46082;-60
2022/02/13 01:22:33;;;;;;;;;61.75;43.50;;;;;2.58;59.37;101183.03;5117505;27;45355;-59
2022/02/13 01:24:58;;;;;;;;;58.50;45.25;;;;;2.55;59.32;101184.94;5098363;27;66149;-60
2022/02/13 01:27:23;;;;;;;;;56.75;44.00;;;;;2.52;59.89;101186.75;5117640;27;45358;-60
2022/02/13 01:29:49;;;;;;;;;59.50;45.00;;;;;2.49;59.25;101192.06;5116356;27;70181;-60
2022/02/13 01:32:14;;;;;;;;;61.75;45.25;;;;;2.48;59.50;101184.34;5116490;27;69062;-61
2022/02/13 01:34:39;;;;;;;;;57.50;42.75;;;;;2.44;59.72;101182.78;5116918;27;57030;-60
2022/02/13 01:37:05;;;;;;;;;59.50;42.00;;;;;2.38;59.81;101189.09;5098084;27;64446;-60
2022/02/13 01:39:31;;;;;;;;;55.00;44.25;;;;;2.35;60.02;101184.91;5117222;27;48381;-60
2022/02/13 01:41:56;;;;;;;;;50.50;39.25;;;;;2.33;59.81;101180.66;5117401;27;45299;-60
2022/02/13 01:44:26;;;;;;;;;56.75;45.00;;;;;2.30;59.94;101186.84;5117389;27;45458;-60
2022/02/13 01:46:51;;;;;;;;;54.25;42.00;;;;;2.28;60.21;101174.84;5117468;27;45299;-60
2022/02/13 01:49:17;;;;;;;;;46.75;40.00;;;;;2.25;60.15;101174.97;5116478;27;60323;-60
2022/02/13 01:51:42;;;;;;;;;60.75;46.00;;;;;2.26;60.27;101174.06;5116534;27;45244;-60
2022/02/13 01:54:09;;;;;;;;;47.00;39.75;;;;;2.25;60.52;101172.38;5117217;27;45419;-60
2022/02/13 01:56:34;;;;;;;;;57.00;42.25;;;;;2.24;60.47;101174.16;5117271;27;45437;-60
2022/02/13 01:59:00;;;;;;;;;47.75;39.75;;;;;2.26;60.65;101174.06;5116042;27;72908;-60
2022/02/13 02:01:25;;;;;;;;;45.50;38.50;;;;;2.28;60.66;101172.25;5116067;27;70803;-60
2022/02/13 02:03:50;;;;;;;;;42.50;35.25;;;;;2.25;60.38;101172.38;5116345;27;65631;-60
2022/02/13 02:06:16;;;;;;;;;53.00;40.50;;;;;2.25;60.53;101162.88;5116140;27;65625;-60
2022/02/13 02:08:41;;;;;;;;;52.00;41.25;;;;;2.26;60.34;101163.69;5097513;27;69042;-60
2022/02/13 02:11:07;;;;;;;;;52.25;40.50;;;;;2.25;60.24;101156.81;5116862;27;47363;-60
2022/02/13 02:13:32;;;;;;;;;48.50;38.25;;;;;2.23;60.71;101160.31;5116921;27;45863;-60
2022/02/13 02:15:57;;;;;;;;;48.75;42.00;;;;;2.26;60.42;101158.50;5116955;27;45619;-60
2022/02/13 02:18:23;;;;;;;;;44.75;39.50;;;;;2.24;60.36;101145.63;5115785;27;70460;-59
2022/02/13 02:20:48;;;;;;;;;50.75;40.25;;;;;2.24;60.37;101145.63;5115915;27;69519;-60
2022/02/13 02:23:13;;;;;;;;;44.50;37.25;;;;;2.25;60.51;101136.94;5116099;27;63150;-61
2022/02/13 02:25:39;;;;;;;;;56.50;42.00;;;;;2.28;60.29;101133.34;5116104;27;61512;-60
2022/02/13 02:28:04;;;;;;;;;50.25;41.00;;;;;2.29;60.03;101127.25;5116443;27;45326;-59
2022/02/13 02:30:29;;;;;;;;;57.75;44.00;;;;;2.30;60.08;101123.75;5114821;27;63915;-60
2022/02/13 02:32:55;;;;;;;;;50.00;40.00;;;;;2.31;59.92;101110.72;5116246;27;49933;-60
2022/02/13 02:35:20;;;;;;;;;41.75;35.25;;;;;2.32;59.92;101112.41;5115801;27;66511;-60
2022/02/13 02:37:46;;;;;;;;;33.50;29.00;;;;;2.34;59.84;101104.56;5114424;27;65667;-60
2022/02/13 02:40:12;;;;;;;;;34.00;32.00;;;;;2.33;59.74;101098.53;5116671;27;45360;-60
2022/02/13 02:42:37;;;;;;;;;36.75;27.50;;;;;2.35;60.00;101088.94;5116629;27;45389;-59
2022/02/13 02:45:03;;;;;;;;;36.50;31.00;;;;;2.37;59.76;101084.53;5115912;27;63166;-60
2022/02/13 02:47:28;;;;;;;;;37.75;29.50;;;;;2.38;59.70;101075.81;5116397;27;45868;-59
2022/02/13 02:49:53;;;;;;;;;33.75;27.25;;;;;2.40;59.15;101077.50;5097470;27;57580;-60
2022/02/13 02:52:19;;;;;;;;;31.25;26.75;;;;;2.39;59.42;101074.06;5115812;27;60317;-60
2022/02/13 02:54:45;;;;;;;;;33.25;27.25;;;;;2.41;59.63;101077.44;5116330;27;45326;-60
2022/02/13 02:57:11;;;;;;;;;19.25;16.00;;;;;2.42;59.37;101073.94;5116359;27;46018;-60
2022/02/13 02:59:36;;;;;;;;;33.00;29.25;;;;;2.43;59.51;101077.34;5116373;27;45255;-60
2022/02/13 03:02:02;;;;;;;;;31.50;28.25;;;;;2.42;59.47;101071.34;5116073;27;60923;-61
2022/02/13 03:04:27;;;;;;;;;32.75;28.25;;;;;2.43;59.45;101069.56;5119928;27;45211;-60
2022/02/13 03:06:52;;;;;;;;;41.25;31.00;;;;;2.45;59.39;101072.94;5119652;27;46282;-59
2022/02/13 03:09:18;;;;;;;;;28.75;27.50;;;;;2.43;59.58;101067.84;5119580;27;45242;-60
2022/02/13 03:11:43;;;;;;;;;26.00;24.75;;;;;2.44;59.50;101064.31;5118893;27;65863;-60
2022/02/13 03:14:10;;;;;;;;;33.25;28.75;;;;;2.41;59.60;101064.47;5118714;27;65366;-60
2022/02/13 03:16:35;;;;;;;;;27.00;24.50;;;;;2.40;59.48;101070.56;5119436;27;46027;-60
2022/02/13 03:19:01;;;;;;;;;30.50;28.00;;;;;2.39;59.65;101061.09;5119564;27;45452;-60
2022/02/13 03:21:27;;;;;;;;;35.50;27.25;;;;;2.38;59.94;101054.22;5118697;27;69355;-60
2022/02/13 03:23:52;;;;;;;;;30.00;26.50;;;;;2.38;59.73;101049.88;5119522;27;45448;-59
2022/02/13 03:26:21;;;;;;;;;32.50;28.50;;;;;2.38;59.74;101049.88;5100819;27;47041;-60
2022/02/13 03:28:46;;;;;;;;;29.00;27.00;;;;;2.40;59.51;101043.78;5119361;27;45229;-60
2022/02/13 03:31:12;;;;;;;;;38.00;29.00;;;;;2.37;59.76;101034.41;5118567;27;60100;-60
2022/02/13 03:33:37;;;;;;;;;31.75;26.00;;;;;2.36;59.68;101028.38;5118445;27;66257;-60
2022/02/13 03:36:03;;;;;;;;;30.25;27.75;;;;;2.38;59.75;101025.69;5118909;27;45287;-60
2022/02/13 03:38:28;;;;;;;;;28.00;25.75;;;;;2.36;59.75;101023.19;5119174;27;45265;-60
2022/02/13 03:40:53;;;;;;;;;28.50;24.00;;;;;2.36;59.68;101014.56;5119059;27;48207;-60
2022/02/13 03:43:20;;;;;;;;;26.00;23.50;;;;;2.38;59.84;101012.75;5118098;27;69423;-60
2022/02/13 03:45:45;;;;;;;;;28.25;24.00;;;;;2.39;59.51;101019.59;5118850;27;47170;-60
2022/02/13 03:48:10;;;;;;;;;28.25;24.00;;;;;2.42;59.62;101014.28;5118096;27;68643;-60
2022/02/13 03:50:36;;;;;;;;;28.25;20.50;;;;;2.45;59.45;101023.66;5118086;27;66593;-59
2022/02/13 03:53:01;;;;;;;;;30.00;23.25;;;;;2.45;59.72;101014.13;5118737;27;47326;-60
2022/02/13 03:55:27;;;;;;;;;30.75;24.25;;;;;2.46;59.70;101012.38;5117921;27;68653;-59
2022/02/13 03:57:52;;;;;;;;;27.25;23.00;;;;;2.47;59.49;101012.31;5100332;27;45472;-60
2022/02/13 04:00:18;;;;;;;;;28.50;22.25;;;;;2.49;59.59;101012.22;5118359;27;58727;-60
2022/02/13 04:02:43;;;;;;;;;24.75;20.75;;;;;2.50;59.23;101004.38;5118780;27;45388;-60
2022/02/13 04:05:09;;;;;;;;;24.25;20.75;;;;;2.53;59.50;101000.78;5117610;27;75629;-60
2022/02/13 04:07:37;;;;;;;;;29.75;23.25;;;;;2.56;59.22;101002.41;5118633;27;45379;-59
2022/02/13 04:10:02;;;;;;;;;25.25;24.00;;;;;2.55;59.02;101004.16;5118728;27;45408;-59
2022/02/13 04:12:28;;;;;;;;;27.50;20.75;;;;;2.55;59.00;101004.16;5118644;27;45217;-60
2022/02/13 04:14:53;;;;;;;;;28.50;21.00;;;;;2.56;59.11;100999.81;5118270;27;45802;-60
2022/02/13 04:17:19;;;;;;;;;25.00;21.75;;;;;2.55;58.96;101004.16;5118742;27;45460;-60
2022/02/13 04:19:45;;;;;;;;;26.75;24.00;;;;;2.55;58.88;101001.56;5118706;27;46050;-60
2022/02/13 04:22:10;;;;;;;;;23.50;22.75;;;;;2.56;59.06;100995.47;5118650;27;45406;-60
2022/02/13 04:24:36;;;;;;;;;26.50;20.50;;;;;2.59;58.79;100991.91;5118087;27;52932;-60
2022/02/13 04:27:01;;;;;;;;;34.25;24.50;;;;;2.56;59.24;100982.50;5118415;27;45290;-59
2022/02/13 04:29:26;;;;;;;;;23.00;20.00;;;;;2.54;58.94;100981.72;5118480;27;45329;-59
2022/02/13 04:31:52;;;;;;;;;24.00;20.00;;;;;2.53;58.87;100977.44;5118399;27;45411;-60
2022/02/13 04:34:17;;;;;;;;;22.50;21.00;;;;;2.53;58.92;100977.44;5118132;27;45998;-59
2022/02/13 04:36:43;;;;;;;;;23.75;22.00;;;;;2.52;59.15;100987.00;5118358;27;45317;-60
2022/02/13 04:39:08;;;;;;;;;25.25;20.50;;;;;2.52;59.01;100979.22;5118217;27;45251;-60
2022/02/13 04:41:34;;;;;;;;;29.50;19.50;;;;;2.54;59.20;100975.72;5118274;27;45592;-60
2022/02/13 04:43:59;;;;;;;;;26.25;21.25;;;;;2.48;59.20;100969.91;5118007;27;46164;-59
2022/02/13 04:46:25;;;;;;;;;28.00;22.75;;;;;2.50;58.93;100968.06;5117210;27;68008;-59
2022/02/13 04:48:50;;;;;;;;;22.25;19.00;;;;;2.52;59.06;100971.44;5118360;27;45290;-59
2022/02/13 04:51:15;;;;;;;;;24.25;21.00;;;;;2.51;58.99;100961.97;5118238;27;45279;-60
2022/02/13 04:53:41;;;;;;;;;29.75;20.25;;;;;2.50;59.08;100955.09;5116935;27;71364;-60
2022/02/13 04:56:06;;;;;;;;;27.25;21.50;;;;;2.54;59.08;100952.38;5116672;27;73230;-59
2022/02/13 04:58:32;;;;;;;;;22.25;20.00;;;;;2.53;59.15;100954.09;5117907;27;45396;-59
2022/02/13 05:00:57;;;;;;;;;22.50;19.75;;;;;2.50;59.00;100943.88;5117788;27;45284;-60
2022/02/13 05:03:24;;;;;;;;;25.00;21.00;;;;;2.50;59.00;100944.72;5117189;27;60607;-60
2022/02/13 05:05:51;;;;;;;;;30.25;21.50;;;;;2.51;59.02;100941.22;5117816;27;45887;-60
2022/02/13 05:08:17;;;;;;;;;30.00;24.50;;;;;2.48;58.99;100936.19;5116889;27;45442;-60
2022/02/13 05:10:42;;;;;;;;;25.75;20.50;;;;;2.46;59.14;100934.56;5117776;27;45290;-60
2022/02/13 05:13:07;;;;;;;;;23.75;21.75;;;;;2.46;58.94;100934.56;5116711;27;67981;-60
2022/02/13 05:15:33;;;;;;;;;26.75;24.75;;;;;2.43;59.19;100924.31;5117000;27;65676;-59
2022/02/13 05:17:59;;;;;;;;;25.00;23.75;;;;;2.41;59.11;100916.63;5117068;27;59769;-60
2022/02/13 05:20:24;;;;;;;;;23.50;22.75;;;;;2.39;59.09;100921.06;5117683;27;45528;-60
2022/02/13 05:22:49;;;;;;;;;28.00;23.00;;;;;2.38;59.42;100916.78;5116947;27;62401;-60
2022/02/13 05:25:15;;;;;;;;;29.25;22.75;;;;;2.36;59.39;100910.81;5116755;27;45447;-60
2022/02/13 05:27:40;;;;;;;;;33.25;25.25;;;;;2.35;59.57;100904.81;5116267;27;45389;-60
2022/02/13 05:30:06;;;;;;;;;33.25;24.75;;;;;2.32;59.41;100907.56;5116348;27;69101;-60
2022/02/13 05:32:32;;;;;;;;;41.00;32.75;;;;;2.29;59.45;100896.47;5117118;27;46919;-60
2022/02/13 05:34:57;;;;;;;;;39.25;29.00;;;;;2.27;59.55;100906.06;5117472;27;45271;-60
2022/02/13 05:37:23;;;;;;;;;43.25;37.00;;;;;2.25;59.75;100897.53;5116743;27;45222;-61
2022/02/13 05:39:48;;;;;;;;;48.00;39.50;;;;;2.23;59.50;100895.03;5116552;27;67641;-60
2022/02/13 05:42:13;;;;;;;;;50.75;35.25;;;;;2.20;59.66;100896.00;5116267;27;75372;-60
2022/02/13 05:44:39;;;;;;;;;42.00;33.50;;;;;2.19;59.50;100893.50;5117312;27;45200;-60
2022/02/13 05:47:05;;;;;;;;;34.75;32.75;;;;;2.17;59.38;100888.34;5117472;27;45453;-60
2022/02/13 05:49:30;;;;;;;;;39.50;28.75;;;;;2.14;59.81;100888.50;5117409;27;45300;-60
2022/02/13 05:51:55;;;;;;;;;32.50;29.50;;;;;2.12;59.81;100882.56;5116277;27;67387;-58
2022/02/13 05:54:21;;;;;;;;;32.75;27.75;;;;;2.09;59.71;100877.53;5116096;27;67699;-60
2022/02/13 05:56:46;;;;;;;;;28.75;23.00;;;;;2.08;59.69;100873.25;5117328;27;45590;-59
2022/02/13 05:59:12;;;;;;;;;29.75;24.00;;;;;2.05;60.10;100886.38;5116383;27;60935;-60
2022/02/13 06:01:37;;;;;;;;;29.50;24.75;;;;;2.04;60.10;100885.50;5116990;27;46164;-60
2022/02/13 06:04:03;;;;;;;;;28.75;27.50;;;;;2.05;60.34;100883.78;5117112;27;45425;-60
2022/02/13 06:06:28;;;;;;;;;27.50;23.25;;;;;2.06;60.16;100877.69;5117260;27;45470;-60
2022/02/13 06:08:54;;;;;;;;;26.25;24.00;;;;;2.08;60.05;100873.25;5116606;27;53739;-61
2022/02/13 06:11:19;;;;;;;;;29.50;25.25;;;;;2.08;60.06;100874.09;5116021;27;65916;-60
2022/02/13 06:13:44;;;;;;;;;33.25;27.50;;;;;2.07;60.27;100869.00;5115902;27;68022;-59
2022/02/13 06:16:10;;;;;;;;;32.50;23.25;;;;;2.06;60.51;100873.31;5117069;27;45319;-60
2022/02/13 06:18:35;;;;;;;;;26.75;25.50;;;;;2.06;60.60;100873.31;5116939;27;45308;-60
2022/02/13 06:21:01;;;;;;;;;35.50;26.25;;;;;2.09;60.42;100874.94;5116879;27;45323;-60
2022/02/13 06:23:27;;;;;;;;;30.25;27.00;;;;;2.07;60.64;100869.81;5116853;27;45236;-59
2022/02/13 06:25:52;;;;;;;;;32.50;27.25;;;;;2.05;60.79;100865.63;5115256;27;52758;-61
2022/02/13 06:28:18;;;;;;;;;33.25;30.25;;;;;2.04;60.64;100861.38;5116474;27;46485;-60
2022/02/13 06:30:43;;;;;;;;;40.75;33.50;;;;;2.00;60.64;100859.81;5115569;27;65948;-60
2022/02/13 06:33:09;;;;;;;;;39.00;33.50;;;;;1.99;60.89;100860.75;5115313;27;45243;-59
2022/02/13 06:35:34;;;;;;;;;33.00;27.75;;;;;1.97;60.48;100858.19;5116700;27;45705;-60
2022/02/13 06:38:03;;;;;;;;;37.25;32.75;;;;;1.95;60.78;100870.41;5120210;27;45251;-59
2022/02/13 06:40:28;;;;;;;;;38.00;32.00;;;;;1.93;60.89;100874.81;5120233;27;45393;-60
2022/02/13 06:42:54;;;;;;;;;42.50;36.00;;;;;1.91;60.75;100872.31;5119339;27;45414;-60
2022/02/13 06:45:19;;;;;;;;;46.50;38.25;;;;;1.90;61.06;100862.84;5101712;27;45647;-60
2022/02/13 06:47:45;;;;;;;;;55.25;40.25;;;;;1.89;61.39;100873.25;5120138;27;45651;-59
2022/02/13 06:50:10;;;;;;;;;39.75;36.50;;;;;1.84;61.18;100857.94;5119908;27;46102;-60
2022/02/13 06:52:36;;;;;;;;;41.25;35.25;;;;;1.84;61.42;100857.13;5118949;27;69034;-60
2022/02/13 06:55:01;;;;;;;;;41.25;34.50;;;;;1.85;61.65;100853.63;5101654;27;45612;-60
2022/02/13 06:57:27;;;;;;;;;33.75;30.25;;;;;1.86;61.33;100840.56;5119686;27;51225;-59
2022/02/13 06:59:53;;;;;;;;;35.00;28.00;;;;;1.85;61.59;100840.66;5119717;27;46168;-59
2022/02/13 07:02:18;;;;;;;;;39.50;28.25;;;;;1.86;61.22;100835.41;5119908;27;45407;-60
2022/02/13 07:04:43;;;;;;;;;42.00;34.50;;;;;1.85;61.22;100832.88;5119502;27;52911;-60
2022/02/13 07:07:09;;;;;;;;;40.50;36.00;;;;;1.87;61.40;100820.69;5118954;27;67769;-60
2022/02/13 07:09:34;;;;;;;;;48.50;39.00;;;;;1.88;61.10;100823.22;5118863;27;46598;-60
2022/02/13 07:12:05;;;;;;;;;42.75;38.50;;;;;1.89;61.30;100817.13;5119658;27;45309;-59
2022/02/13 07:14:32;;;;;;;;;48.25;40.50;;;;;1.93;61.35;100822.97;5119671;27;45321;-61
2022/02/13 07:16:58;;;;;;;;;40.25;38.00;;;;;1.95;60.95;100818.56;5119431;27;45523;-60
2022/02/13 07:19:23;;;;;;;;;41.75;34.00;;;;;1.95;61.19;100818.56;5119089;27;52979;-60
2022/02/13 07:21:49;;;;;;;;;42.50;35.00;;;;;1.95;61.02;100815.97;5118565;27;65349;-60
2022/02/13 07:24:14;;;;;;;;;42.00;31.75;;;;;1.95;61.41;100818.56;5118064;27;45238;-60
2022/02/13 07:26:40;;;;;;;;;46.00;32.50;;;;;1.96;61.13;100812.47;5100011;27;57458;-61
2022/02/13 07:29:08;;;;;;;;;38.75;32.25;;;;;1.99;61.06;100816.69;5118379;27;70507;-59
2022/02/13 07:31:35;;;;;;;;;36.50;33.00;;;;;2.00;61.15;100824.38;5119077;27;45539;-60
2022/02/13 07:34:00;;;;;;;;;39.75;32.75;;;;;2.01;61.29;100820.88;5119416;27;45289;-60
2022/02/13 07:36:26;;;;;;;;;37.75;34.00;;;;;2.04;61.22;100820.72;5119451;27;45544;-60
2022/02/13 07:38:51;;;;;;;;;37.50;32.25;;;;;2.05;60.96;100818.97;5119020;27;46212;-60
2022/02/13 07:41:16;;;;;;;;;43.00;34.75;;;;;2.07;61.41;100817.16;5119352;27;45379;-60
2022/02/13 07:43:42;;;;;;;;;39.50;33.25;;;;;2.11;61.15;100810.06;5119395;27;45420;-60
2022/02/13 07:46:07;;;;;;;;;35.25;24.25;;;;;2.13;61.11;100803.88;5118708;27;57691;-60
2022/02/13 07:48:33;;;;;;;;;42.50;31.50;;;;;2.17;61.26;100802.81;5099701;27;46048;-59
2022/02/13 07:50:58;;;;;;;;;33.25;27.50;;;;;2.21;61.11;100808.69;5099977;27;45427;-60
2022/02/13 07:53:23;;;;;;;;;36.00;31.50;;;;;2.25;61.25;100807.63;5119185;27;45297;-59
2022/02/13 07:55:49;;;;;;;;;33.50;29.00;;;;;2.31;61.05;100806.47;5117992;27;55399;-60
2022/02/13 07:58:14;;;;;;;;;33.75;29.00;;;;;2.36;60.95;100807.09;5118222;27;45284;-60
2022/02/13 08:00:40;;;;;;;;;37.00;28.75;;;;;2.42;61.23;100803.34;5117386;27;66580;-61
2022/02/13 08:03:05;;;;;;;;;35.00;32.25;;;;;2.45;61.17;100791.09;5117189;27;68414;-60
2022/02/13 08:05:30;;;;;;;;;35.25;28.00;;;;;2.54;61.17;100791.53;5117552;27;62382;-60
2022/02/13 08:07:56;;;;;;;;;38.00;24.25;;;;;2.60;60.91;100784.25;5099320;27;46724;-59
2022/02/13 08:10:21;;;;;;;;;30.75;26.50;;;;;2.67;60.90;100784.78;5117951;27;45782;-59
2022/02/13 08:12:47;;;;;;;;;24.75;24.50;;;;;2.74;60.66;100769.75;5117571;27;59812;-61
2022/02/13 08:15:12;;;;;;;;;33.25;27.00;;;;;2.78;60.95;100764.31;5117906;27;51039;-60
2022/02/13 08:17:38;;;;;;;;;30.75;24.00;;;;;2.85;60.62;100757.06;5099418;27;46293;-60
2022/02/13 08:20:07;;;;;;;;;37.75;30.25;;;;;2.91;60.91;100751.56;5118009;27;45313;-60
2022/02/13 08:22:35;;;;;;;;;30.50;28.50;;;;;2.96;60.97;100748.69;5100091;27;45409;-59
2022/02/13 08:25:01;;;;;;;;;29.00;24.75;;;;;2.98;60.97;100739.06;5116329;27;45394;-59
2022/02/13 08:27:26;;;;;;;;;30.25;28.75;;;;;3.04;60.96;100732.69;5115329;27;45358;-60
2022/02/13 08:29:52;;;;;;;;;33.75;31.25;;;;;3.07;60.84;100730.81;5117050;27;70902;-60
2022/02/13 08:32:18;;;;;;;;;26.25;23.25;;;;;3.13;61.02;100723.59;5099382;27;45434;-60
2022/02/13 08:34:43;;;;;;;;;31.25;26.00;;;;;3.17;61.01;100718.16;5118269;27;45437;-60
2022/02/13 08:37:09;;;;;;;;;24.00;24.00;;;;;3.24;60.65;100718.63;5118285;27;46028;-60
2022/02/13 08:39:34;;;;;;;;;27.00;25.00;;;;;3.30;60.86;100715.72;5117668;27;56815;-59
2022/02/13 08:41:59;;;;;;;;;37.25;31.75;;;;;3.36;61.05;100715.38;5118168;27;48029;-60
2022/02/13 08:44:25;;;;;;;;;30.00;26.75;;;;;3.46;60.81;100710.50;5118361;27;45483;-60
2022/02/13 08:46:50;;;;;;;;;29.50;27.00;;;;;3.56;61.01;100705.63;5118080;27;46233;-61
2022/02/13 08:49:16;;;;;;;;;39.00;26.00;;;;;3.65;60.80;100697.31;5116771;27;71227;-60
2022/02/13 08:51:41;;;;;;;;;30.75;22.50;;;;;3.77;60.89;100703.56;5117660;27;56524;-60
2022/02/13 08:54:06;;;;;;;;;26.25;24.00;;;;;3.90;60.84;100693.31;5099557;27;45311;-61
2022/02/13 08:56:32;;;;;;;;;30.25;23.50;;;;;4.04;60.82;100692.50;5117129;27;65843;-60
2022/02/13 08:58:59;;;;;;;;;28.50;23.00;;;;;4.21;60.71;100694.13;5116911;27;68251;-60
2022/02/13 09:01:24;;;;;;;;;30.00;23.25;;;;;4.38;60.63;100687.91;5115969;27;45361;-60
2022/02/13 09:03:49;;;;;;;;;36.00;23.75;;;;;4.58;60.45;100689.31;5099002;27;52408;-61
2022/02/13 09:06:15;;;;;;;;;21.00;19.00;;;;;4.80;60.22;100680.16;5117194;27;65209;-61
2022/02/13 09:08:40;;;;;;;;;25.50;20.75;;;;;5.00;59.98;100678.09;5117156;27;68576;-60
2022/02/13 09:11:06;;;;;;;;;34.00;24.00;;;;;5.20;59.92;100676.81;5117379;27;45882;-60
2022/02/13 09:13:31;;;;;;;;;29.00;26.25;;;;;5.42;59.63;100671.06;5115752;27;58096;-60
2022/02/13 09:15:57;;;;;;;;;30.00;24.75;;;;;5.62;59.59;100669.75;5116340;27;64603;-61
2022/02/13 09:18:22;;;;;;;;;31.75;23.25;;;;;5.84;59.32;100668.34;5116638;27;45469;-60
2022/02/13 09:20:47;;;;;;;;;33.25;25.25;;;;;6.07;58.88;100674.66;5097760;27;58045;-60
2022/02/13 09:23:14;;;;;;;;;27.75;25.00;;;;;6.28;58.48;100661.13;5117182;27;45556;-59
2022/02/13 09:25:40;;;;;;;;;26.50;24.50;;;;;6.48;58.44;100657.13;5115556;27;45322;-61
2022/02/13 09:28:06;;;;;;;;;31.00;23.75;;;;;6.68;58.16;100663.56;5117096;27;45213;-61
2022/02/13 09:30:31;;;;;;;;;27.50;24.00;;;;;6.88;57.76;100658.72;5116752;27;45381;-60
2022/02/13 09:32:56;;;;;;;;;29.25;24.25;;;;;7.06;57.56;100650.50;5116071;27;61599;-60
2022/02/13 09:35:22;;;;;;;;;26.25;21.25;;;;;7.23;57.34;100657.97;5116070;27;63326;-60
2022/02/13 09:37:50;;;;;;;;;28.75;26.50;;;;;7.41;57.10;100647.13;5115789;27;65748;-60
2022/02/13 09:40:16;;;;;;;;;31.50;25.25;;;;;7.61;56.85;100644.78;5116763;27;45361;-60
2022/02/13 09:42:43;;;;;;;;;28.00;23.25;;;;;7.81;56.59;100635.44;5116728;27;45350;-61
2022/02/13 09:45:08;;;;;;;;;27.25;21.00;;;;;7.99;56.18;100634.06;5116570;27;45361;-60
2022/02/13 09:47:34;;;;;;;;;27.25;22.50;;;;;8.11;55.91;100616.59;5097742;27;53674;-61
2022/02/13 09:49:59;;;;;;;;;26.25;24.25;;;;;8.30;55.54;100615.16;5081248;27;45555;-59
2022/02/13 09:52:24;;;;;;;;;29.50;24.25;;;;;8.41;54.98;100596.84;5116216;27;64842;-60
2022/02/13 09:54:50;;;;;;;;;30.25;23.75;;;;;8.54;54.32;100590.66;5081521;27;45945;-60
2022/02/13 10:00:00;;;;;;;;;31.75;25.75;;;;;8.75;54.27;100588.94;5116916;27;45366;-61
2022/02/13 10:02:36;;;;;;;;;32.50;26.75;;;;;8.92;54.54;100576.28;5116997;27;45379;-60
2022/02/13 10:05:03;;;;;;;;;22.75;21.50;;;;;9.11;53.87;100569.53;5117009;27;46067;-61
2022/02/13 10:07:31;;;;;;;;;29.25;23.00;;;;;9.27;53.60;100569.13;5116857;27;45849;-61
2022/02/13 10:09:57;;;;;;;;;27.50;23.25;;;;;9.44;53.29;100562.47;5098699;27;45503;-60
2022/02/13 10:12:38;;;;;;;;;30.75;26.50;;;;;9.62;53.08;100550.41;5119450;27;45549;-61
2022/02/13 10:15:29;;;;;;;;;23.50;20.00;;;;;9.81;52.50;100551.50;5102876;27;46121;-61
2022/02/13 10:18:06;;;;;;;;;24.50;22.00;;;;;9.98;52.15;100543.97;5102070;27;45442;-60
2022/02/13 10:20:36;;;;;;;;;24.75;18.75;;;;;10.07;52.03;100527.41;5120533;27;45222;-61
2022/02/13 10:23:12;;;;;;;;;29.00;26.00;;;;;10.12;51.61;100524.41;5102103;27;45414;-61
2022/02/13 10:25:38;;;;;;;;;21.75;21.00;;;;;10.12;51.45;100530.47;5119699;27;47158;-61
2022/02/13 10:28:11;;;;;;;;;29.25;26.50;;;;;10.10;51.94;100511.38;5119604;27;45297;-61
2022/02/13 10:30:42;;;;;;;;;25.25;22.00;;;;;10.10;51.60;100506.13;5119727;27;45460;-60
2022/02/13 10:33:24;;;;;;;;;23.75;22.50;;;;;10.10;51.58;100506.13;5119971;27;45476;-61
2022/02/13 10:36:11;;;;;;;;;31.50;25.75;;;;;10.14;51.96;100502.28;5119693;27;45411;-61
2022/02/13 10:38:38;;;;;;;;;24.75;20.00;;;;;10.18;51.89;100493.19;5120067;27;45925;-60
2022/02/13 10:41:13;;;;;;;;;28.00;22.50;;;;;10.23;51.83;100490.97;5120103;27;45378;-61
2022/02/13 10:43:59;;;;;;;;;26.00;23.25;;;;;10.30;51.75;100491.28;5101425;27;45453;-60
2022/02/13 10:46:32;;;;;;;;;21.50;20.00;;;;;10.33;51.58;100484.91;5119758;27;47023;-61
2022/02/13 10:48:57;;;;;;;;;24.75;22.75;;;;;10.32;51.32;100489.34;5120043;27;45758;-60
2022/02/13 10:51:23;;;;;;;;;26.25;24.25;;;;;10.33;51.65;100485.75;5120153;27;45245;-61
2022/02/13 10:53:48;;;;;;;;;25.25;21.00;;;;;10.39;51.86;100481.78;5119122;27;45152;-60
2022/02/13 10:56:14;;;;;;;;;26.75;24.50;;;;;10.43;51.92;100462.16;5119748;27;45364;-61
2022/02/13 10:58:39;;;;;;;;;27.75;26.50;;;;;10.52;52.07;100463.97;5118766;27;72367;-61
2022/02/13 11:01:08;;;;;;;;;28.00;24.50;;;;;10.59;51.50;100459.00;5119102;27;61090;-61
2022/02/13 11:03:35;;;;;;;;;26.25;22.50;;;;;10.69;51.86;100461.59;5119746;27;45550;-61
2022/02/13 11:06:02;;;;;;;;;22.75;22.75;;;;;10.81;51.63;100447.34;5119586;27;46006;-60
2022/02/13 11:08:30;;;;;;;;;22.50;17.75;;;;;10.89;51.68;100443.19;5119706;27;45964;-61
2022/02/13 11:10:57;;;;;;;;;27.75;24.50;;;;;10.93;51.18;100444.59;5101696;27;45444;-60
2022/02/13 11:13:30;;;;;;;;;31.75;26.00;;;;;10.98;51.48;100440.56;5083551;27;45406;-61